createdAt,value
2023-05-12T00:01:19.448Z,9.00
2023-05-12T00:03:46.056Z,10.30
2023-05-12T00:06:14.731Z,9.40
2023-05-12T00:08:41.171Z,8.30
2023-05-12T00:11:07.403Z,9.10
2023-05-12T00:13:36.394Z,8.10
2023-05-12T00:16:03.046Z,8.70
2023-05-12T00:18:31.676Z,9.00
2023-05-12T00:20:57.871Z,8.00
2023-05-12T00:23:24.100Z,8.70
2023-05-12T00:25:50.379Z,8.30
2023-05-12T00:28:19.852Z,8.80
2023-05-12T00:30:46.113Z,9.60
2023-05-12T00:33:16.016Z,8.50
2023-05-12T00:35:45.206Z,8.20
2023-05-12T00:38:12.507Z,8.30
2023-05-12T00:40:39.056Z,8.90
2023-05-12T00:43:05.257Z,7.70
2023-05-12T00:45:31.381Z,7.80
2023-05-12T00:48:00.410Z,5.10
2023-05-12T00:50:27.043Z,6.20
2023-05-12T00:52:53.254Z,5.50
2023-05-12T00:55:20.085Z,5.80
2023-05-12T00:57:46.476Z,6.20
2023-05-12T01:00:13.569Z,5.80
2023-05-12T01:02:42.027Z,5.00
2023-05-12T01:05:11.466Z,5.40
2023-05-12T01:07:39.053Z,6.50
2023-05-12T01:10:17.052Z,4.80
2023-05-12T01:12:43.371Z,5.40
2023-05-12T01:15:09.950Z,5.10
2023-05-12T01:17:37.003Z,5.00
2023-05-12T01:20:06.075Z,4.70
2023-05-12T01:22:35.475Z,6.40
2023-05-12T01:25:04.220Z,4.30
2023-05-12T01:27:31.042Z,3.90
2023-05-12T01:30:02.468Z,4.00
2023-05-12T01:32:31.216Z,4.40
2023-05-12T01:34:57.597Z,3.90
2023-05-12T01:37:26.597Z,5.10
2023-05-12T01:39:53.380Z,4.30
2023-05-12T01:42:19.453Z,4.90
2023-05-12T01:44:45.905Z,5.20
2023-05-12T01:47:13.054Z,4.90
2023-05-12T01:49:41.525Z,5.50
2023-05-12T01:52:07.694Z,6.60
2023-05-12T01:54:33.902Z,6.20
2023-05-12T01:57:03.831Z,7.30
2023-05-12T01:59:30.005Z,5.30
2023-05-12T02:01:56.228Z,6.10
2023-05-12T02:04:27.078Z,5.80
2023-05-12T02:06:53.252Z,6.20
2023-05-12T02:09:19.383Z,6.20
2023-05-12T02:11:45.629Z,6.60
2023-05-12T02:14:11.773Z,7.70
2023-05-12T02:16:38.129Z,7.70
2023-05-12T02:19:04.595Z,8.40
2023-05-12T02:21:30.875Z,10.30
2023-05-12T02:23:56.915Z,10.10
2023-05-12T02:26:23.244Z,10.10
2023-05-12T02:28:49.354Z,10.00
2023-05-12T02:31:15.462Z,10.80
2023-05-12T02:33:41.739Z,9.90
2023-05-12T02:36:08.498Z,10.20
2023-05-12T02:38:34.826Z,11.60
2023-05-12T02:41:01.552Z,10.40
2023-05-12T02:43:27.734Z,11.10
2023-05-12T02:45:54.240Z,11.00
2023-05-12T02:48:20.481Z,11.00
2023-05-12T02:50:46.709Z,15.10
2023-05-12T02:53:12.829Z,10.50
2023-05-12T02:55:38.964Z,17.30
2023-05-12T02:58:05.136Z,12.50
2023-05-12T03:00:31.351Z,12.50
2023-05-12T03:02:57.585Z,14.60
2023-05-12T03:05:23.795Z,12.70
2023-05-12T03:07:52.906Z,13.00
2023-05-12T03:10:19.348Z,13.80
2023-05-12T03:12:45.938Z,14.50
2023-05-12T03:15:12.122Z,14.80
2023-05-12T03:17:38.615Z,14.90
2023-05-12T03:20:05.984Z,14.60
2023-05-12T03:22:32.158Z,14.90
2023-05-12T03:24:58.385Z,14.90
2023-05-12T03:27:27.536Z,16.20
2023-05-12T03:29:53.682Z,17.40
2023-05-12T03:32:19.749Z,17.60
2023-05-12T03:34:48.751Z,16.80
2023-05-12T03:37:17.330Z,18.60
2023-05-12T03:39:43.463Z,17.90
2023-05-12T03:42:09.496Z,16.90
2023-05-12T03:44:35.622Z,20.30
2023-05-12T03:47:01.795Z,18.60
2023-05-12T03:49:28.109Z,20.30
2023-05-12T03:51:54.123Z,19.60
2023-05-12T03:54:20.231Z,18.10
2023-05-12T03:56:46.273Z,22.20
2023-05-12T03:59:12.618Z,19.80
2023-05-12T04:01:41.027Z,21.70
2023-05-12T04:04:07.321Z,23.60
2023-05-12T04:06:33.696Z,21.00
2023-05-12T04:08:59.945Z,23.50
2023-05-12T04:11:26.032Z,22.90
2023-05-12T04:13:52.170Z,21.30
2023-05-12T04:16:18.290Z,22.60
2023-05-12T04:18:48.741Z,24.50
2023-05-12T04:21:15.552Z,22.90
2023-05-12T04:23:41.910Z,23.50
2023-05-12T04:26:08.060Z,23.60
2023-05-12T04:28:36.720Z,24.10
2023-05-12T04:31:09.003Z,23.10
2023-05-12T04:33:35.125Z,25.70
2023-05-12T04:36:01.344Z,24.20
2023-05-12T04:38:28.512Z,21.30
2023-05-12T04:40:59.377Z,26.60
2023-05-12T04:45:55.573Z,28.70
2023-05-12T04:48:21.841Z,24.80
2023-05-12T04:50:49.818Z,28.60
2023-05-12T04:53:16.264Z,28.20
2023-05-12T04:55:45.212Z,25.20
2023-05-12T04:58:13.299Z,25.90
2023-05-12T05:00:40.025Z,25.60
2023-05-12T05:03:06.402Z,25.70
2023-05-12T05:05:32.874Z,28.20
2023-05-12T05:07:58.994Z,27.60
2023-05-12T05:10:33.468Z,25.90
2023-05-12T05:13:00.993Z,25.30
2023-05-12T05:15:27.302Z,27.80
2023-05-12T05:17:54.021Z,26.50
2023-05-12T05:20:20.393Z,26.20
2023-05-12T05:22:47.776Z,26.80
2023-05-12T05:25:14.428Z,25.20
2023-05-12T05:27:40.669Z,23.70
2023-05-12T05:30:08.557Z,28.00
2023-05-12T05:32:36.479Z,24.00
2023-05-12T05:35:03.014Z,25.60
2023-05-12T05:37:29.224Z,27.30
2023-05-12T05:39:55.470Z,28.40
2023-05-12T05:42:21.576Z,24.50
2023-05-12T05:44:48.664Z,25.50
2023-05-12T05:47:14.780Z,28.80
2023-05-12T05:49:41.766Z,25.10
2023-05-12T05:52:07.768Z,25.30
2023-05-12T05:54:33.878Z,27.70
2023-05-12T05:57:01.663Z,27.00
2023-05-12T05:59:27.928Z,26.80
2023-05-12T06:01:53.991Z,24.90
2023-05-12T06:04:22.436Z,24.50
2023-05-12T06:06:48.512Z,27.70
2023-05-12T06:09:15.238Z,25.20
2023-05-12T06:11:41.294Z,24.00
2023-05-12T06:14:07.440Z,26.30
2023-05-12T06:16:36.689Z,24.10
2023-05-12T06:19:03.023Z,26.00
2023-05-12T06:21:29.206Z,24.20
2023-05-12T06:23:57.546Z,23.10
2023-05-12T06:26:23.630Z,23.90
2023-05-12T06:28:49.681Z,27.20
2023-05-12T06:31:15.882Z,24.70
2023-05-12T06:33:42.123Z,24.50
2023-05-12T06:36:10.045Z,24.10
2023-05-12T06:38:36.133Z,21.30
2023-05-12T06:41:06.783Z,19.30
2023-05-12T06:43:32.969Z,20.50
2023-05-12T06:45:59.025Z,21.90
2023-05-12T06:48:25.573Z,23.70
2023-05-12T06:50:52.068Z,18.90
2023-05-12T06:53:18.286Z,20.30
2023-05-12T06:55:45.939Z,20.30
2023-05-12T06:58:12.135Z,18.80
2023-05-12T07:00:41.227Z,17.50
2023-05-12T07:03:09.514Z,18.10
2023-05-12T07:05:35.967Z,17.10
2023-05-12T07:08:02.236Z,18.20
2023-05-12T07:10:28.441Z,14.40
2023-05-12T07:12:54.677Z,14.30
2023-05-12T07:15:21.254Z,13.80
2023-05-12T07:17:47.894Z,16.10
2023-05-12T07:20:14.204Z,16.00
2023-05-12T07:22:40.422Z,14.50
2023-05-12T07:25:07.647Z,15.00
2023-05-12T07:27:34.635Z,14.40
2023-05-12T07:30:00.752Z,15.60
2023-05-12T07:32:27.126Z,15.70
2023-05-12T07:34:53.294Z,14.40
2023-05-12T07:37:19.477Z,14.80
2023-05-12T07:39:46.040Z,15.70
2023-05-12T07:42:12.188Z,14.30
2023-05-12T07:44:40.737Z,15.50
2023-05-12T07:47:06.919Z,13.30
2023-05-12T07:49:33.197Z,13.00
2023-05-12T07:52:02.600Z,13.50
2023-05-12T07:54:29.856Z,12.60
2023-05-12T07:56:55.898Z,14.60
2023-05-12T07:59:22.137Z,15.90
2023-05-12T08:01:48.701Z,13.90
2023-05-12T08:04:15.072Z,12.90
2023-05-12T08:06:43.649Z,12.60
2023-05-12T08:09:09.757Z,11.60
2023-05-12T08:11:35.888Z,11.90
2023-05-12T08:14:01.993Z,11.40
2023-05-12T08:16:28.188Z,10.20
2023-05-12T08:18:54.832Z,9.70
2023-05-12T08:21:21.740Z,10.70
2023-05-12T08:23:47.902Z,10.50
2023-05-12T08:26:13.913Z,9.60
2023-05-12T08:28:42.326Z,9.60
2023-05-12T08:31:10.907Z,10.80
2023-05-12T08:33:37.432Z,10.70
2023-05-12T08:36:05.683Z,7.60
2023-05-12T08:38:32.030Z,8.00
2023-05-12T08:41:01.166Z,7.20
2023-05-12T08:43:37.725Z,6.40
2023-05-12T08:46:04.795Z,6.30
2023-05-12T08:48:33.872Z,6.20
2023-05-12T08:51:01.361Z,5.40
2023-05-12T08:53:28.808Z,6.50
2023-05-12T08:57:09.722Z,6.20
2023-05-12T08:58:42.595Z,5.80
2023-05-12T09:01:10.777Z,5.50
2023-05-12T09:03:37.157Z,6.40
2023-05-12T09:06:05.475Z,6.70
2023-05-12T09:08:33.371Z,5.00
2023-05-12T09:11:02.088Z,4.60
2023-05-12T09:13:39.873Z,4.80
2023-05-12T09:16:08.885Z,4.90
2023-05-12T09:18:52.374Z,4.90
2023-05-12T09:21:19.437Z,4.60
2023-05-12T09:24:06.257Z,4.60
2023-05-12T09:26:53.527Z,4.70
2023-05-12T09:29:30.695Z,4.80
2023-05-12T09:32:00.933Z,4.10
2023-05-12T09:34:31.951Z,5.10
2023-05-12T09:37:03.367Z,5.10
2023-05-12T09:39:29.523Z,4.40
2023-05-12T09:41:59.100Z,4.30
2023-05-12T09:44:28.443Z,4.80
2023-05-12T09:46:56.931Z,4.70
2023-05-12T09:49:28.123Z,4.70
2023-05-12T09:51:58.295Z,3.80
2023-05-12T09:54:28.351Z,7.20
2023-05-12T09:56:58.178Z,3.70
2023-05-12T09:59:30.401Z,4.80
2023-05-12T10:01:59.544Z,5.20
2023-05-12T10:04:32.720Z,5.20
2023-05-12T10:06:59.160Z,4.90
2023-05-12T10:09:33.391Z,3.40
2023-05-12T10:12:00.125Z,3.70
2023-05-12T10:14:26.303Z,4.90
2023-05-12T10:16:56.080Z,4.90
2023-05-12T10:19:25.825Z,4.60
2023-05-12T10:21:52.968Z,5.60
2023-05-12T10:24:20.463Z,3.90
2023-05-12T10:26:47.041Z,4.70
2023-05-12T10:29:13.972Z,4.10
2023-05-12T10:31:40.765Z,4.50
2023-05-12T10:34:07.189Z,3.90
2023-05-12T10:36:47.140Z,3.30
2023-05-12T10:39:15.916Z,5.20
2023-05-12T10:41:42.317Z,4.40
2023-05-12T10:44:11.546Z,6.10
2023-05-12T10:46:38.122Z,4.00
2023-05-12T10:49:09.663Z,3.10
2023-05-12T10:51:44.359Z,4.70
2023-05-12T10:54:12.305Z,4.30
2023-05-12T10:56:38.876Z,5.20
2023-05-12T10:59:12.726Z,4.20
2023-05-12T11:01:41.460Z,3.70
2023-05-12T11:04:15.420Z,4.10
2023-05-12T11:09:13.581Z,3.90
2023-05-12T11:11:40.476Z,3.90
2023-05-12T11:14:08.090Z,2.90
2023-05-12T11:16:34.356Z,5.00
2023-05-12T11:19:05.051Z,4.60
2023-05-12T11:21:34.379Z,3.50
2023-05-12T11:24:01.626Z,4.00
2023-05-12T11:26:28.959Z,3.50
2023-05-12T11:28:58.758Z,3.40
2023-05-12T11:31:27.317Z,3.70
2023-05-12T11:34:12.646Z,3.80
2023-05-12T11:36:46.065Z,5.00
2023-05-12T11:39:16.995Z,3.90
2023-05-12T11:41:46.104Z,4.30
2023-05-12T11:44:20.435Z,6.20
2023-05-12T11:46:58.847Z,3.90
2023-05-12T11:49:26.608Z,3.70
2023-05-12T11:51:58.363Z,5.20
2023-05-12T11:54:30.520Z,4.20
2023-05-12T11:56:57.283Z,5.10
2023-05-12T11:59:30.187Z,4.80
2023-05-12T12:02:02.148Z,5.70
2023-05-12T12:04:40.144Z,3.60
2023-05-12T12:07:09.164Z,5.90
2023-05-12T12:09:40.382Z,5.40
2023-05-12T12:12:08.319Z,5.70
2023-05-12T12:14:36.572Z,3.90
2023-05-12T12:17:03.682Z,4.60
2023-05-12T12:19:30.147Z,5.20
2023-05-12T12:21:58.865Z,4.60
2023-05-12T12:24:25.681Z,6.20
2023-05-12T12:26:51.806Z,5.40
2023-05-12T12:29:18.105Z,4.40
2023-05-12T12:31:44.448Z,4.50
2023-05-12T12:34:10.830Z,4.40
2023-05-12T12:36:36.862Z,3.90
2023-05-12T12:39:03.872Z,4.70
2023-05-12T12:41:29.919Z,4.40
2023-05-12T12:43:56.334Z,6.00
2023-05-12T12:46:22.437Z,6.60
2023-05-12T12:48:51.274Z,5.50
2023-05-12T12:51:17.410Z,3.30
2023-05-12T12:53:45.092Z,5.40
2023-05-12T12:56:11.542Z,7.00
2023-05-12T12:58:37.764Z,5.50
2023-05-12T13:01:04.130Z,4.20
2023-05-12T13:03:32.959Z,4.20
2023-05-12T13:06:01.670Z,6.40
2023-05-12T13:08:27.895Z,4.90
2023-05-12T13:10:54.638Z,5.50
2023-05-12T13:13:20.880Z,4.30
2023-05-12T13:15:47.000Z,6.00
2023-05-12T13:18:13.196Z,5.10
2023-05-12T13:20:39.662Z,4.60
2023-05-12T13:23:05.831Z,5.20
2023-05-12T13:25:31.940Z,6.30
2023-05-12T13:28:01.022Z,6.90
2023-05-12T13:30:27.513Z,7.90
2023-05-12T13:32:53.760Z,3.90
2023-05-12T13:35:21.121Z,4.60
2023-05-12T13:37:47.890Z,4.80
2023-05-12T13:40:13.952Z,5.90
2023-05-12T13:42:40.198Z,6.10
2023-05-12T13:45:08.564Z,5.30
2023-05-12T13:47:35.003Z,5.10
2023-05-12T13:50:01.093Z,5.70
2023-05-12T13:52:27.216Z,5.70
2023-05-12T13:54:53.295Z,4.30
2023-05-12T13:57:22.298Z,5.90
2023-05-12T13:59:49.803Z,4.70
2023-05-12T14:02:15.881Z,5.30
2023-05-12T14:04:41.955Z,4.30
2023-05-12T14:07:08.900Z,7.40
2023-05-12T14:09:35.253Z,5.10
2023-05-12T14:12:03.878Z,5.50
2023-05-12T14:14:30.074Z,6.30
2023-05-12T14:16:56.420Z,6.00
2023-05-12T14:19:22.695Z,5.70
2023-05-12T14:21:49.302Z,4.30
2023-05-12T14:24:15.672Z,5.00
2023-05-12T14:26:44.919Z,7.10
2023-05-12T14:29:11.129Z,5.30
2023-05-12T14:31:37.396Z,7.50
2023-05-12T14:34:03.890Z,5.70
2023-05-12T14:36:30.337Z,4.80
2023-05-12T14:38:56.422Z,5.90
2023-05-12T14:41:23.779Z,5.10
2023-05-12T14:43:52.998Z,5.70
2023-05-12T14:46:19.257Z,6.40
2023-05-12T14:48:46.948Z,5.60
2023-05-12T14:51:12.961Z,5.00
2023-05-12T14:53:39.299Z,4.90
2023-05-12T14:56:05.706Z,5.00
2023-05-12T14:58:34.894Z,5.00
2023-05-12T15:01:02.355Z,5.90
2023-05-12T15:03:28.713Z,4.60
2023-05-12T15:06:05.571Z,6.40
2023-05-12T15:08:33.099Z,4.50
2023-05-12T15:10:59.322Z,5.30
2023-05-12T15:13:25.700Z,6.50
2023-05-12T15:15:55.033Z,5.80
2023-05-12T15:18:22.992Z,5.10
2023-05-12T15:20:49.472Z,4.50
2023-05-12T15:23:15.711Z,4.70
2023-05-12T15:25:42.027Z,7.60
2023-05-12T15:28:08.306Z,5.20
2023-05-12T15:30:35.430Z,4.20
2023-05-12T15:33:04.597Z,6.60
2023-05-12T15:35:31.999Z,6.40
2023-05-12T15:37:58.743Z,6.40
2023-05-12T15:40:29.889Z,10.10
2023-05-12T15:42:56.720Z,6.70
2023-05-12T15:45:23.009Z,5.20
2023-05-12T15:47:49.553Z,6.70
2023-05-12T15:50:19.253Z,7.00
2023-05-12T15:52:46.549Z,5.90
2023-05-12T15:55:12.666Z,4.70
2023-05-12T15:57:38.773Z,5.30
2023-05-12T16:00:06.385Z,7.60
2023-05-12T16:02:32.758Z,6.70
2023-05-12T16:05:02.063Z,5.70
2023-05-12T16:07:30.506Z,8.60
2023-05-12T16:09:57.418Z,7.10
2023-05-12T16:12:23.600Z,8.00
2023-05-12T16:14:53.230Z,6.30
2023-05-12T16:17:21.700Z,7.00
2023-05-12T16:19:48.479Z,5.90
2023-05-12T16:22:14.813Z,6.30
2023-05-12T16:24:48.375Z,6.70
2023-05-12T16:27:14.585Z,5.00
2023-05-12T16:29:50.174Z,6.80
2023-05-12T16:32:16.913Z,5.60
2023-05-12T16:34:43.675Z,4.60
2023-05-12T16:37:09.974Z,4.70
2023-05-12T16:39:36.348Z,5.60
2023-05-12T16:42:02.985Z,7.10
2023-05-12T16:44:29.288Z,6.20
2023-05-12T16:46:55.608Z,5.90
2023-05-12T16:49:22.655Z,4.60
2023-05-12T16:51:49.894Z,4.90
2023-05-12T16:54:17.645Z,3.60
2023-05-12T16:56:43.809Z,5.60
2023-05-12T16:59:09.997Z,4.00
2023-05-12T17:01:36.257Z,4.00
2023-05-12T17:04:02.811Z,5.30
2023-05-12T17:06:29.336Z,4.80
2023-05-12T17:08:55.597Z,3.60
2023-05-12T17:11:24.151Z,4.30
2023-05-12T17:13:50.903Z,7.50
2023-05-12T17:16:17.383Z,5.50
2023-05-12T17:21:13.350Z,5.70
2023-05-12T17:23:40.369Z,4.20
2023-05-12T17:26:06.497Z,5.30
2023-05-12T17:28:32.563Z,5.40
2023-05-12T17:31:01.470Z,2.90
2023-05-12T17:33:28.487Z,3.60
2023-05-12T17:36:10.903Z,4.80
2023-05-12T17:38:38.828Z,6.30
2023-05-12T17:41:04.953Z,4.60
2023-05-12T17:43:31.296Z,5.30
2023-05-12T17:45:57.356Z,5.00
2023-05-12T17:48:25.815Z,3.10
2023-05-12T17:50:52.714Z,4.50
2023-05-12T17:53:18.862Z,4.30
2023-05-12T17:55:44.966Z,4.80
2023-05-12T17:58:11.366Z,5.50
2023-05-12T18:00:37.727Z,4.10
2023-05-12T18:03:04.258Z,4.80
2023-05-12T18:05:30.590Z,3.50
2023-05-12T18:07:56.619Z,4.20
2023-05-12T18:10:22.786Z,4.20
2023-05-12T18:12:48.889Z,2.90
2023-05-12T18:15:16.993Z,3.90
2023-05-12T18:17:45.849Z,7.00
2023-05-12T18:20:12.909Z,3.20
2023-05-12T18:22:39.023Z,4.30
2023-05-12T18:25:09.512Z,4.40
2023-05-12T18:27:36.115Z,7.30
2023-05-12T18:30:02.346Z,6.40
2023-05-12T18:32:28.502Z,7.70
2023-05-12T18:34:54.710Z,5.60
2023-05-12T18:37:21.471Z,4.40
2023-05-12T18:39:47.571Z,4.20
2023-05-12T18:42:13.751Z,5.40
2023-05-12T18:44:40.770Z,4.40
2023-05-12T18:47:08.015Z,5.20
2023-05-12T18:49:34.728Z,5.30
2023-05-12T18:52:01.216Z,5.90
2023-05-12T18:54:27.284Z,5.50
2023-05-12T18:56:53.445Z,6.60
2023-05-12T18:59:19.580Z,5.70
2023-05-12T19:01:46.727Z,6.00
2023-05-12T19:04:12.928Z,5.70
2023-05-12T19:06:38.973Z,7.30
2023-05-12T19:09:07.822Z,5.50
2023-05-12T19:11:33.824Z,6.80
2023-05-12T19:14:00.500Z,8.10
2023-05-12T19:16:29.537Z,12.20
2023-05-12T19:18:55.781Z,7.60
2023-05-12T19:21:22.205Z,6.70
2023-05-12T19:23:48.304Z,6.70
2023-05-12T19:26:14.564Z,6.40
2023-05-12T19:28:40.640Z,5.40
2023-05-12T19:31:06.827Z,5.50
2023-05-12T19:33:35.337Z,6.80
2023-05-12T19:36:01.673Z,7.50
2023-05-12T19:38:27.985Z,8.00
2023-05-12T19:40:55.078Z,7.60
2023-05-12T19:43:21.337Z,7.00
2023-05-12T19:45:47.616Z,7.40
2023-05-12T19:48:14.401Z,6.90
2023-05-12T19:50:40.749Z,6.70
2023-05-12T19:53:06.922Z,8.60
2023-05-12T19:55:36.327Z,8.20
2023-05-12T19:58:02.561Z,7.10
2023-05-12T20:00:28.624Z,7.50
2023-05-12T20:02:54.825Z,6.50
2023-05-12T20:05:21.351Z,7.60
2023-05-12T20:07:50.540Z,7.00
2023-05-12T20:10:19.583Z,7.80
2023-05-12T20:12:45.915Z,7.70
2023-05-12T20:15:11.977Z,9.20
2023-05-12T20:17:38.332Z,7.10
2023-05-12T20:20:05.609Z,7.70
2023-05-12T20:22:31.986Z,6.90
2023-05-12T20:25:03.448Z,8.80
2023-05-12T20:27:32.921Z,7.00
2023-05-12T20:30:00.270Z,7.70
2023-05-12T20:32:26.361Z,7.60
2023-05-12T20:34:52.691Z,10.60
2023-05-12T20:37:18.992Z,9.00
2023-05-12T20:39:45.503Z,8.70
2023-05-12T20:42:11.547Z,7.70
2023-05-12T20:44:37.902Z,8.60
2023-05-12T20:47:04.567Z,8.80
2023-05-12T20:49:33.229Z,7.70
2023-05-12T20:51:59.442Z,8.60
2023-05-12T20:54:25.893Z,8.80
2023-05-12T20:56:52.033Z,10.30
2023-05-12T20:59:18.881Z,9.30
2023-05-12T21:01:45.402Z,7.90
2023-05-12T21:04:11.685Z,10.30
2023-05-12T21:06:38.285Z,9.00
2023-05-12T21:09:04.419Z,10.20
2023-05-12T21:11:30.552Z,10.70
2023-05-12T21:13:56.921Z,7.20
2023-05-12T21:16:23.073Z,8.60
2023-05-12T21:18:49.143Z,11.70
2023-05-12T21:21:15.517Z,8.90
2023-05-12T21:23:41.651Z,7.70
2023-05-12T21:26:09.820Z,8.30
2023-05-12T21:28:36.602Z,7.70
2023-05-12T21:31:02.716Z,10.70
2023-05-12T21:33:32.678Z,7.80
2023-05-12T21:35:58.845Z,9.50
2023-05-12T21:38:24.950Z,8.00
2023-05-12T21:40:52.180Z,10.60
2023-05-12T21:43:18.382Z,10.60
2023-05-12T21:45:44.539Z,9.00
2023-05-12T21:48:11.828Z,9.70
2023-05-12T21:50:40.777Z,9.00
2023-05-12T21:53:07.059Z,7.90
2023-05-12T21:55:33.304Z,8.70
2023-05-12T21:57:59.465Z,9.00
2023-05-12T22:00:25.896Z,7.10
2023-05-12T22:02:54.334Z,8.30
2023-05-12T22:05:20.512Z,6.60
2023-05-12T22:07:48.696Z,8.30
2023-05-12T22:10:15.136Z,7.90
2023-05-12T22:12:41.217Z,7.20
2023-05-12T22:15:10.888Z,6.30
2023-05-12T22:17:37.189Z,6.50
2023-05-12T22:20:04.794Z,10.80
2023-05-12T22:22:30.908Z,6.10
2023-05-12T22:24:57.890Z,6.40
2023-05-12T22:27:23.984Z,8.50
2023-05-12T22:29:50.315Z,8.20
2023-05-12T22:32:16.674Z,6.70
2023-05-12T22:34:42.688Z,7.40
2023-05-12T22:37:08.933Z,7.60
2023-05-12T22:39:34.928Z,7.20
2023-05-12T22:42:03.698Z,6.40
2023-05-12T22:44:30.226Z,6.60
2023-05-12T22:46:56.653Z,6.60
2023-05-12T22:49:23.118Z,7.10
2023-05-12T22:51:49.270Z,6.20
2023-05-12T22:54:15.440Z,6.70
2023-05-12T22:56:41.784Z,6.50
2023-05-12T22:59:07.835Z,6.40
2023-05-12T23:01:33.942Z,5.60
2023-05-12T23:04:00.329Z,6.20
2023-05-12T23:06:26.480Z,7.80
2023-05-12T23:08:52.632Z,7.80
2023-05-12T23:11:22.420Z,8.50
2023-05-12T23:13:48.576Z,5.60
2023-05-12T23:16:17.602Z,6.60
2023-05-12T23:18:46.858Z,7.40
2023-05-12T23:21:13.012Z,5.80
2023-05-12T23:23:39.110Z,6.60
2023-05-12T23:26:05.263Z,7.10
2023-05-12T23:28:31.529Z,7.10
2023-05-12T23:30:57.753Z,7.20
2023-05-12T23:33:24.150Z,6.50
2023-05-12T23:35:50.366Z,6.60
2023-05-12T23:38:16.448Z,6.60
2023-05-12T23:40:42.704Z,7.40
2023-05-12T23:43:08.814Z,9.20
2023-05-12T23:45:35.368Z,8.60
2023-05-12T23:48:01.606Z,6.80
2023-05-12T23:50:30.642Z,7.00
2023-05-12T23:52:56.699Z,7.30
2023-05-12T23:55:22.928Z,8.10
2023-05-12T23:57:49.087Z,6.70
